Aviation Digital Data Service (ADDS)

Output produced by METARs form (2134 UTC 17 September 2014)
found at http://aviationweather.gov/adds/metars/
 
KARA 172053Z 09005KT 10SM BKN037 32/23 A2991 RMK AO2 SLP126 T03220228 57022